sensor_id;sensor_type;location;lat;lon;timestamp;pressure;altitude;pressure_sealevel;temperature;humidity
22653;BME280;11493;43.344;26.226;2023-02-22T00:01:34;99071.31;;;10.59;64.52
22653;BME280;11493;43.344;26.226;2023-02-22T00:04:05;99072.59;;;10.52;64.72
22653;BME280;11493;43.344;26.226;2023-02-22T00:06:32;99076.81;;;10.50;64.97
22653;BME280;11493;43.344;26.226;2023-02-22T00:08:59;99054.47;;;10.43;64.70
22653;BME280;11493;43.344;26.226;2023-02-22T00:11:28;99062.38;;;10.44;64.76
22653;BME280;11493;43.344;26.226;2023-02-22T00:13:57;99065.63;;;10.38;65.01
22653;BME280;11493;43.344;26.226;2023-02-22T00:16:25;99067.09;;;10.35;65.47
22653;BME280;11493;43.344;26.226;2023-02-22T00:18:52;99078.09;;;10.35;65.18
22653;BME280;11493;43.344;26.226;2023-02-22T00:21:20;99073.22;;;10.32;65.39
22653;BME280;11493;43.344;26.226;2023-02-22T00:23:48;99054.13;;;10.27;65.27
22653;BME280;11493;43.344;26.226;2023-02-22T00:26:20;99066.75;;;10.28;65.32
22653;BME280;11493;43.344;26.226;2023-02-22T00:28:52;99058.63;;;10.23;65.51
22653;BME280;11493;43.344;26.226;2023-02-22T00:31:20;99067.56;;;10.29;65.78
22653;BME280;11493;43.344;26.226;2023-02-22T00:33:48;99068.19;;;10.26;65.57
22653;BME280;11493;43.344;26.226;2023-02-22T00:36:16;99072.59;;;10.35;65.57
22653;BME280;11493;43.344;26.226;2023-02-22T00:38:42;99067.72;;;10.32;65.63
22653;BME280;11493;43.344;26.226;2023-02-22T00:41:10;99071.47;;;10.36;65.70
22653;BME280;11493;43.344;26.226;2023-02-22T00:43:37;99054.94;;;10.28;65.70
22653;BME280;11493;43.344;26.226;2023-02-22T00:46:04;99067.56;;;10.29;65.71
22653;BME280;11493;43.344;26.226;2023-02-22T00:48:31;99058.00;;;10.26;65.78
22653;BME280;11493;43.344;26.226;2023-02-22T00:50:58;99061.38;;;10.23;65.92
22653;BME280;11493;43.344;26.226;2023-02-22T00:53:25;99067.81;;;10.18;66.13
22653;BME280;11493;43.344;26.226;2023-02-22T00:55:52;99066.56;;;10.25;65.96
22653;BME280;11493;43.344;26.226;2023-02-22T00:58:20;99057.00;;;10.22;66.37
22653;BME280;11493;43.344;26.226;2023-02-22T01:00:47;99056.00;;;10.18;65.83
22653;BME280;11493;43.344;26.226;2023-02-22T01:03:16;99038.50;;;10.05;65.99
22653;BME280;11493;43.344;26.226;2023-02-22T01:05:44;99074.75;;;10.16;66.13
22653;BME280;11493;43.344;26.226;2023-02-22T01:08:13;99075.38;;;10.13;66.15
22653;BME280;11493;43.344;26.226;2023-02-22T01:10:41;99060.47;;;10.05;66.00
22653;BME280;11493;43.344;26.226;2023-02-22T01:13:09;99068.91;;;10.09;65.98
22653;BME280;11493;43.344;26.226;2023-02-22T01:15:40;99069.53;;;10.06;65.96
22653;BME280;11493;43.344;26.226;2023-02-22T01:18:08;99068.72;;;10.05;66.18
22653;BME280;11493;43.344;26.226;2023-02-22T01:20:35;99067.56;;;9.98;66.89
22653;BME280;11493;43.344;26.226;2023-02-22T01:23:04;99066.56;;;9.94;66.60
22653;BME280;11493;43.344;26.226;2023-02-22T01:25:34;99068.19;;;9.95;67.10
22653;BME280;11493;43.344;26.226;2023-02-22T01:28:03;99068.19;;;9.95;67.02
22653;BME280;11493;43.344;26.226;2023-02-22T01:30:33;99063.81;;;9.94;67.40
22653;BME280;11493;43.344;26.226;2023-02-22T01:33:02;99070.94;;;9.95;67.11
22653;BME280;11493;43.344;26.226;2023-02-22T01:35:33;99070.81;;;10.00;67.02
22653;BME280;11493;43.344;26.226;2023-02-22T01:38:01;99066.63;;;10.02;66.76
22653;BME280;11493;43.344;26.226;2023-02-22T01:40:31;99064.19;;;10.01;66.81
22653;BME280;11493;43.344;26.226;2023-02-22T01:43:00;99059.00;;;9.99;66.92
22653;BME280;11493;43.344;26.226;2023-02-22T01:48:10;99064.03;;;10.06;66.57
22653;BME280;11493;43.344;26.226;2023-02-22T01:50:45;99063.69;;;9.99;66.50
22653;BME280;11493;43.344;26.226;2023-02-22T01:53:15;99056.22;;;9.91;66.75
22653;BME280;11493;43.344;26.226;2023-02-22T01:55:46;99065.41;;;9.86;67.09
22653;BME280;11493;43.344;26.226;2023-02-22T01:58:15;99050.00;;;9.76;67.23
22653;BME280;11493;43.344;26.226;2023-02-22T02:00:44;99051.44;;;9.65;67.78
22653;BME280;11493;43.344;26.226;2023-02-22T02:03:15;99059.00;;;9.60;67.88
22653;BME280;11493;43.344;26.226;2023-02-22T02:05:44;99059.63;;;9.57;68.24
22653;BME280;11493;43.344;26.226;2023-02-22T02:08:22;99045.59;;;9.36;68.72
22653;BME280;11493;43.344;26.226;2023-02-22T02:10:50;99045.25;;;9.29;69.21
22653;BME280;11493;43.344;26.226;2023-02-22T02:13:19;99052.22;;;9.35;69.53
22653;BME280;11493;43.344;26.226;2023-02-22T02:15:46;99052.34;;;9.30;69.40
22653;BME280;11493;43.344;26.226;2023-02-22T02:18:15;99063.94;;;9.27;69.64
22653;BME280;11493;43.344;26.226;2023-02-22T02:21:01;99065.69;;;9.22;69.91
22653;BME280;11493;43.344;26.226;2023-02-22T02:36:07;99064.63;;;9.10;70.54
22653;BME280;11493;43.344;26.226;2023-02-22T02:38:54;99060.81;;;8.97;71.01
22653;BME280;11493;43.344;26.226;2023-02-22T02:41:43;99065.88;;;9.04;70.75
22653;BME280;11493;43.344;26.226;2023-02-22T02:44:26;99067.44;;;8.96;71.00
22653;BME280;11493;43.344;26.226;2023-02-22T02:47:00;99063.88;;;8.96;70.95
22653;BME280;11493;43.344;26.226;2023-02-22T02:49:36;99072.31;;;8.99;70.82
22653;BME280;11493;43.344;26.226;2023-02-22T02:52:06;99064.69;;;8.96;71.46
22653;BME280;11493;43.344;26.226;2023-02-22T02:54:38;99067.69;;;8.86;71.34
22653;BME280;11493;43.344;26.226;2023-02-22T02:57:06;99064.94;;;8.86;71.82
22653;BME280;11493;43.344;26.226;2023-02-22T02:59:37;99075.94;;;8.86;71.76
22653;BME280;11493;43.344;26.226;2023-02-22T03:08:00;99059.47;;;8.86;71.64
22653;BME280;11493;43.344;26.226;2023-02-22T03:16:14;99068.44;;;9.00;71.54
22653;BME280;11493;43.344;26.226;2023-02-22T03:18:53;99065.44;;;8.88;71.65
22653;BME280;11493;43.344;26.226;2023-02-22T03:21:37;99068.19;;;8.88;71.98
22653;BME280;11493;43.344;26.226;2023-02-22T03:26:43;99055.22;;;8.80;71.47
22653;BME280;11493;43.344;26.226;2023-02-22T03:29:14;99069.44;;;8.82;71.88
22653;BME280;11493;43.344;26.226;2023-02-22T03:31:47;99083.03;;;8.87;71.56
22653;BME280;11493;43.344;26.226;2023-02-22T03:34:25;99075.13;;;8.85;72.02
22653;BME280;11493;43.344;26.226;2023-02-22T03:37:02;99083.69;;;8.93;71.58
22653;BME280;11493;43.344;26.226;2023-02-22T03:39:34;99081.28;;;8.91;71.39
22653;BME280;11493;43.344;26.226;2023-02-22T03:42:09;99072.56;;;8.89;71.49
22653;BME280;11493;43.344;26.226;2023-02-22T03:44:41;99079.69;;;8.90;71.44
22653;BME280;11493;43.344;26.226;2023-02-22T03:47:16;99074.19;;;8.90;71.38
22653;BME280;11493;43.344;26.226;2023-02-22T03:49:51;99074.66;;;8.92;70.96
22653;BME280;11493;43.344;26.226;2023-02-22T03:52:19;99093.13;;;9.00;71.26
22653;BME280;11493;43.344;26.226;2023-02-22T03:54:50;99091.50;;;8.99;71.08
22653;BME280;11493;43.344;26.226;2023-02-22T03:57:34;99090.38;;;9.00;71.25
22653;BME280;11493;43.344;26.226;2023-02-22T04:00:07;99094.38;;;8.94;71.45
22653;BME280;11493;43.344;26.226;2023-02-22T04:02:43;99084.19;;;8.95;71.29
22653;BME280;11493;43.344;26.226;2023-02-22T04:05:16;99091.13;;;8.92;71.45
22653;BME280;11493;43.344;26.226;2023-02-22T04:07:44;99085.91;;;8.82;71.95
22653;BME280;11493;43.344;26.226;2023-02-22T04:10:14;99085.81;;;8.73;72.30
22653;BME280;11493;43.344;26.226;2023-02-22T04:12:42;99082.69;;;8.66;72.37
22653;BME280;11493;43.344;26.226;2023-02-22T04:15:12;99079.25;;;8.61;72.79
22653;BME280;11493;43.344;26.226;2023-02-22T04:17:42;99068.56;;;8.59;72.66
22653;BME280;11493;43.344;26.226;2023-02-22T04:20:12;99075.78;;;8.55;72.87
22653;BME280;11493;43.344;26.226;2023-02-22T04:22:47;99070.09;;;8.51;73.29
22653;BME280;11493;43.344;26.226;2023-02-22T04:25:14;99077.09;;;8.57;73.10
22653;BME280;11493;43.344;26.226;2023-02-22T04:27:42;99072.34;;;8.49;72.93
22653;BME280;11493;43.344;26.226;2023-02-22T04:30:10;99082.31;;;8.45;73.59
22653;BME280;11493;43.344;26.226;2023-02-22T04:32:38;99067.59;;;8.41;73.76
22653;BME280;11493;43.344;26.226;2023-02-22T04:35:06;99081.50;;;8.45;73.77
22653;BME280;11493;43.344;26.226;2023-02-22T04:37:33;99075.41;;;8.48;73.68
22653;BME280;11493;43.344;26.226;2023-02-22T04:40:04;99080.56;;;8.49;73.84
22653;BME280;11493;43.344;26.226;2023-02-22T04:42:35;99074.59;;;8.47;73.79
22653;BME280;11493;43.344;26.226;2023-02-22T04:45:04;99093.38;;;8.54;73.70
22653;BME280;11493;43.344;26.226;2023-02-22T04:47:32;99079.75;;;8.49;73.70
22653;BME280;11493;43.344;26.226;2023-02-22T04:49:59;99089.59;;;8.50;73.53
22653;BME280;11493;43.344;26.226;2023-02-22T04:52:28;99089.81;;;8.53;73.82
22653;BME280;11493;43.344;26.226;2023-02-22T04:54:55;99097.03;;;8.49;73.83
22653;BME280;11493;43.344;26.226;2023-02-22T04:57:23;99091.75;;;8.39;74.06
22653;BME280;11493;43.344;26.226;2023-02-22T04:59:50;99082.38;;;8.27;74.44
22653;BME280;11493;43.344;26.226;2023-02-22T05:02:18;99078.94;;;8.21;74.60
22653;BME280;11493;43.344;26.226;2023-02-22T05:04:45;99082.69;;;8.25;75.04
22653;BME280;11493;43.344;26.226;2023-02-22T05:07:12;99095.06;;;8.22;74.71
22653;BME280;11493;43.344;26.226;2023-02-22T05:09:39;99085.66;;;8.15;74.99
22653;BME280;11493;43.344;26.226;2023-02-22T05:12:06;99088.72;;;8.13;74.93
22653;BME280;11493;43.344;26.226;2023-02-22T05:14:33;99101.97;;;8.20;75.10
22653;BME280;11493;43.344;26.226;2023-02-22T05:17:01;99101.47;;;8.18;75.21
22653;BME280;11493;43.344;26.226;2023-02-22T05:19:29;99116.81;;;8.19;75.04
22653;BME280;11493;43.344;26.226;2023-02-22T05:21:56;99099.88;;;8.17;75.39
22653;BME280;11493;43.344;26.226;2023-02-22T05:24:23;99097.25;;;8.12;75.33
22653;BME280;11493;43.344;26.226;2023-02-22T05:26:50;99098.72;;;8.18;75.62
22653;BME280;11493;43.344;26.226;2023-02-22T05:29:19;99082.41;;;8.13;75.20
22653;BME280;11493;43.344;26.226;2023-02-22T05:31:46;99100.59;;;8.36;75.09
22653;BME280;11493;43.344;26.226;2023-02-22T05:34:14;99092.66;;;8.35;75.05
22653;BME280;11493;43.344;26.226;2023-02-22T05:36:41;99090.84;;;8.44;74.92
22653;BME280;11493;43.344;26.226;2023-02-22T05:39:08;99098.84;;;8.54;74.24
22653;BME280;11493;43.344;26.226;2023-02-22T05:41:35;99106.47;;;8.57;74.58
22653;BME280;11493;43.344;26.226;2023-02-22T05:44:02;99108.78;;;8.64;73.91
22653;BME280;11493;43.344;26.226;2023-02-22T05:46:29;99120.56;;;8.78;74.02
22653;BME280;11493;43.344;26.226;2023-02-22T05:48:57;99130.78;;;8.86;73.78
22653;BME280;11493;43.344;26.226;2023-02-22T05:51:23;99111.28;;;8.87;73.67
22653;BME280;11493;43.344;26.226;2023-02-22T05:53:51;99119.06;;;8.94;73.96
22653;BME280;11493;43.344;26.226;2023-02-22T05:56:27;99132.44;;;9.09;73.91
22653;BME280;11493;43.344;26.226;2023-02-22T05:58:54;99143.69;;;9.21;73.86
22653;BME280;11493;43.344;26.226;2023-02-22T06:01:22;99136.97;;;9.28;73.39
22653;BME280;11493;43.344;26.226;2023-02-22T06:03:50;99155.69;;;9.48;72.48
22653;BME280;11493;43.344;26.226;2023-02-22T06:06:18;99150.06;;;9.53;72.61
22653;BME280;11493;43.344;26.226;2023-02-22T06:08:48;99145.78;;;9.61;72.21
22653;BME280;11493;43.344;26.226;2023-02-22T06:11:15;99141.44;;;9.68;72.13
22653;BME280;11493;43.344;26.226;2023-02-22T06:13:51;99163.53;;;9.85;71.82
22653;BME280;11493;43.344;26.226;2023-02-22T06:16:20;99160.16;;;9.88;71.76
22653;BME280;11493;43.344;26.226;2023-02-22T06:18:48;99164.13;;;10.05;71.58
22653;BME280;11493;43.344;26.226;2023-02-22T06:21:16;99159.31;;;10.10;71.75
22653;BME280;11493;43.344;26.226;2023-02-22T06:23:43;99170.06;;;10.20;71.61
22653;BME280;11493;43.344;26.226;2023-02-22T06:26:11;99168.97;;;10.30;71.83
22653;BME280;11493;43.344;26.226;2023-02-22T06:28:38;99162.72;;;10.38;71.90
22653;BME280;11493;43.344;26.226;2023-02-22T06:31:05;99179.56;;;10.54;71.26
22653;BME280;11493;43.344;26.226;2023-02-22T06:33:32;99185.25;;;10.58;71.16
22653;BME280;11493;43.344;26.226;2023-02-22T06:35:59;99170.56;;;10.71;71.10
22653;BME280;11493;43.344;26.226;2023-02-22T06:38:28;99173.19;;;10.84;71.06
22653;BME280;11493;43.344;26.226;2023-02-22T06:40:55;99157.81;;;10.92;70.63
22653;BME280;11493;43.344;26.226;2023-02-22T06:43:22;99175.34;;;11.13;70.23
22653;BME280;11493;43.344;26.226;2023-02-22T06:45:51;99167.56;;;11.15;69.63
22653;BME280;11493;43.344;26.226;2023-02-22T06:48:18;99177.78;;;11.32;68.92
22653;BME280;11493;43.344;26.226;2023-02-22T06:50:45;99164.50;;;11.43;68.47
22653;BME280;11493;43.344;26.226;2023-02-22T06:53:12;99173.41;;;11.57;68.68
22653;BME280;11493;43.344;26.226;2023-02-22T06:55:39;99169.03;;;11.65;68.19
22653;BME280;11493;43.344;26.226;2023-02-22T06:58:06;99153.13;;;11.70;68.35
22653;BME280;11493;43.344;26.226;2023-02-22T07:00:33;99178.72;;;11.97;66.98
22653;BME280;11493;43.344;26.226;2023-02-22T07:03:00;99192.16;;;12.07;66.82
22653;BME280;11493;43.344;26.226;2023-02-22T07:05:29;99178.38;;;11.98;67.12
22653;BME280;11493;43.344;26.226;2023-02-22T07:08:02;99182.25;;;12.06;66.86
22653;BME280;11493;43.344;26.226;2023-02-22T07:10:31;99167.47;;;12.19;66.49
22653;BME280;11493;43.344;26.226;2023-02-22T07:12:59;99164.00;;;12.39;66.12
22653;BME280;11493;43.344;26.226;2023-02-22T07:15:28;99171.75;;;12.46;65.84
22653;BME280;11493;43.344;26.226;2023-02-22T07:17:56;99174.34;;;12.51;65.29
22653;BME280;11493;43.344;26.226;2023-02-22T07:20:25;99176.31;;;12.71;64.83
22653;BME280;11493;43.344;26.226;2023-02-22T07:22:52;99171.72;;;12.84;63.79
22653;BME280;11493;43.344;26.226;2023-02-22T07:25:21;99184.38;;;12.85;63.92
22653;BME280;11493;43.344;26.226;2023-02-22T07:27:48;99170.38;;;12.90;64.26
22653;BME280;11493;43.344;26.226;2023-02-22T07:30:26;99182.56;;;12.89;63.42
22653;BME280;11493;43.344;26.226;2023-02-22T07:32:59;99188.56;;;12.91;63.32
22653;BME280;11493;43.344;26.226;2023-02-22T07:35:32;99178.09;;;13.05;63.00
22653;BME280;11493;43.344;26.226;2023-02-22T07:37:59;99176.19;;;13.27;62.19
22653;BME280;11493;43.344;26.226;2023-02-22T07:40:26;99181.31;;;13.37;61.68
22653;BME280;11493;43.344;26.226;2023-02-22T07:45:34;99177.63;;;13.33;61.89
22653;BME280;11493;43.344;26.226;2023-02-22T07:48:02;99173.41;;;13.47;61.71
22653;BME280;11493;43.344;26.226;2023-02-22T07:50:30;99175.22;;;13.64;60.95
22653;BME280;11493;43.344;26.226;2023-02-22T07:53:01;99168.16;;;13.55;60.75
22653;BME280;11493;43.344;26.226;2023-02-22T07:55:30;99168.47;;;13.74;60.78
22653;BME280;11493;43.344;26.226;2023-02-22T07:58:00;99171.63;;;13.85;59.98
22653;BME280;11493;43.344;26.226;2023-02-22T08:00:33;99164.69;;;13.78;59.65
22653;BME280;11493;43.344;26.226;2023-02-22T08:03:03;99164.59;;;13.87;60.21
22653;BME280;11493;43.344;26.226;2023-02-22T08:05:31;99172.69;;;13.92;59.90
22653;BME280;11493;43.344;26.226;2023-02-22T08:07:59;99170.25;;;13.91;59.52
22653;BME280;11493;43.344;26.226;2023-02-22T08:10:27;99173.50;;;13.93;59.75
22653;BME280;11493;43.344;26.226;2023-02-22T08:12:54;99166.25;;;14.00;59.31
22653;BME280;11493;43.344;26.226;2023-02-22T08:15:33;99171.44;;;14.14;58.66
22653;BME280;11493;43.344;26.226;2023-02-22T08:18:02;99174.72;;;14.28;58.97
22653;BME280;11493;43.344;26.226;2023-02-22T08:20:29;99165.03;;;14.22;58.44
22653;BME280;11493;43.344;26.226;2023-02-22T08:22:57;99162.03;;;14.27;58.80
22653;BME280;11493;43.344;26.226;2023-02-22T08:25:27;99168.63;;;14.35;58.91
22653;BME280;11493;43.344;26.226;2023-02-22T08:28:07;99159.69;;;14.50;58.69
22653;BME280;11493;43.344;26.226;2023-02-22T08:30:35;99164.19;;;14.67;58.44
22653;BME280;11493;43.344;26.226;2023-02-22T08:33:06;99160.03;;;14.61;57.62
22653;BME280;11493;43.344;26.226;2023-02-22T08:35:33;99164.16;;;14.42;58.00
22653;BME280;11493;43.344;26.226;2023-02-22T08:38:03;99155.31;;;14.61;57.51
22653;BME280;11493;43.344;26.226;2023-02-22T08:40:33;99168.13;;;14.78;57.11
22653;BME280;11493;43.344;26.226;2023-02-22T08:43:01;99170.88;;;14.78;57.34
22653;BME280;11493;43.344;26.226;2023-02-22T08:45:29;99157.25;;;14.85;57.48
22653;BME280;11493;43.344;26.226;2023-02-22T08:47:57;99157.47;;;14.92;56.54
22653;BME280;11493;43.344;26.226;2023-02-22T08:50:29;99164.84;;;15.00;56.36
22653;BME280;11493;43.344;26.226;2023-02-22T08:53:00;99170.16;;;14.93;56.44
22653;BME280;11493;43.344;26.226;2023-02-22T08:55:30;99166.34;;;15.10;56.35
22653;BME280;11493;43.344;26.226;2023-02-22T08:57:59;99172.00;;;15.13;55.65
22653;BME280;11493;43.344;26.226;2023-02-22T09:00:30;99173.81;;;15.22;55.17
22653;BME280;11493;43.344;26.226;2023-02-22T09:03:00;99160.19;;;15.29;55.35
22653;BME280;11493;43.344;26.226;2023-02-22T09:05:28;99171.47;;;15.36;55.11
22653;BME280;11493;43.344;26.226;2023-02-22T09:07:57;99166.63;;;15.33;55.33
22653;BME280;11493;43.344;26.226;2023-02-22T09:10:27;99162.25;;;15.32;54.70
22653;BME280;11493;43.344;26.226;2023-02-22T09:12:55;99169.72;;;15.43;54.78
22653;BME280;11493;43.344;26.226;2023-02-22T09:15:24;99169.28;;;15.41;55.11
22653;BME280;11493;43.344;26.226;2023-02-22T09:17:52;99163.75;;;15.29;55.15
22653;BME280;11493;43.344;26.226;2023-02-22T09:20:20;99155.31;;;15.38;55.65
22653;BME280;11493;43.344;26.226;2023-02-22T09:22:48;99164.19;;;15.43;55.30
22653;BME280;11493;43.344;26.226;2023-02-22T09:25:16;99165.31;;;15.55;55.80
22653;BME280;11493;43.344;26.226;2023-02-22T09:27:49;99161.28;;;15.52;55.09
22653;BME280;11493;43.344;26.226;2023-02-22T09:30:21;99149.47;;;15.55;54.37
22653;BME280;11493;43.344;26.226;2023-02-22T09:32:51;99168.16;;;15.70;54.54
22653;BME280;11493;43.344;26.226;2023-02-22T09:35:19;99158.97;;;15.82;54.23
22653;BME280;11493;43.344;26.226;2023-02-22T09:37:56;99154.84;;;15.76;54.18
22653;BME280;11493;43.344;26.226;2023-02-22T09:40:25;99159.13;;;15.73;54.37
22653;BME280;11493;43.344;26.226;2023-02-22T09:51:42;99154.75;;;16.16;52.94
22653;BME280;11493;43.344;26.226;2023-02-22T09:54:27;99157.34;;;16.09;51.77
22653;BME280;11493;43.344;26.226;2023-02-22T09:56:57;99151.44;;;16.26;51.78
22653;BME280;11493;43.344;26.226;2023-02-22T09:59:30;99149.81;;;16.09;50.99
22653;BME280;11493;43.344;26.226;2023-02-22T10:02:29;99115.84;;;15.85;50.79
22653;BME280;11493;43.344;26.226;2023-02-22T10:05:07;99141.50;;;16.09;50.46
22653;BME280;11493;43.344;26.226;2023-02-22T10:07:43;99138.56;;;16.18;50.72
22653;BME280;11493;43.344;26.226;2023-02-22T10:10:18;99149.03;;;16.25;51.15
22653;BME280;11493;43.344;26.226;2023-02-22T10:18:26;99142.91;;;16.35;50.00
22653;BME280;11493;43.344;26.226;2023-02-22T10:28:52;99139.09;;;16.71;50.12
22653;BME280;11493;43.344;26.226;2023-02-22T10:31:30;99139.00;;;16.52;50.14
22653;BME280;11493;43.344;26.226;2023-02-22T10:34:01;99127.59;;;16.57;49.51
22653;BME280;11493;43.344;26.226;2023-02-22T10:36:28;99127.53;;;16.53;50.38
22653;BME280;11493;43.344;26.226;2023-02-22T10:39:06;99109.50;;;16.47;49.34
22653;BME280;11493;43.344;26.226;2023-02-22T10:41:44;99109.25;;;16.52;49.79
22653;BME280;11493;43.344;26.226;2023-02-22T10:44:15;99109.50;;;16.47;49.51
22653;BME280;11493;43.344;26.226;2023-02-22T10:46:44;99100.09;;;16.52;50.09
22653;BME280;11493;43.344;26.226;2023-02-22T10:49:20;99094.38;;;16.60;50.13
22653;BME280;11493;43.344;26.226;2023-02-22T10:51:59;99102.91;;;16.67;50.23
22653;BME280;11493;43.344;26.226;2023-02-22T10:54:35;99107.06;;;16.93;49.60
22653;BME280;11493;43.344;26.226;2023-02-22T10:57:06;99102.97;;;16.87;49.25
22653;BME280;11493;43.344;26.226;2023-02-22T10:59:38;99110.13;;;16.56;50.22
22653;BME280;11493;43.344;26.226;2023-02-22T11:02:26;99098.47;;;16.82;50.90
22653;BME280;11493;43.344;26.226;2023-02-22T11:04:59;99086.47;;;16.78;50.19
22653;BME280;11493;43.344;26.226;2023-02-22T11:10:05;99096.47;;;16.98;50.29
22653;BME280;11493;43.344;26.226;2023-02-22T11:12:35;99104.59;;;17.07;50.26
22653;BME280;11493;43.344;26.226;2023-02-22T11:17:50;99080.69;;;17.02;49.04
22653;BME280;11493;43.344;26.226;2023-02-22T11:20:23;99091.72;;;16.99;49.91
22653;BME280;11493;43.344;26.226;2023-02-22T11:22:59;99096.19;;;17.03;49.07
22653;BME280;11493;43.344;26.226;2023-02-22T11:25:31;99087.78;;;17.19;48.49
22653;BME280;11493;43.344;26.226;2023-02-22T11:28:11;99085.78;;;17.20;49.24
22653;BME280;11493;43.344;26.226;2023-02-22T11:30:45;99075.25;;;17.09;48.57
22653;BME280;11493;43.344;26.226;2023-02-22T11:41:05;99072.34;;;17.02;48.74
22653;BME280;11493;43.344;26.226;2023-02-22T11:43:33;99083.09;;;17.23;49.72
22653;BME280;11493;43.344;26.226;2023-02-22T11:48:36;99078.56;;;17.34;48.61
22653;BME280;11493;43.344;26.226;2023-02-22T11:54:11;99065.38;;;17.12;49.30
22653;BME280;11493;43.344;26.226;2023-02-22T11:56:51;99070.34;;;17.22;49.01
22653;BME280;11493;43.344;26.226;2023-02-22T12:08:23;99068.53;;;17.49;48.87
22653;BME280;11493;43.344;26.226;2023-02-22T12:11:05;99059.00;;;17.50;48.55
22653;BME280;11493;43.344;26.226;2023-02-22T12:14:03;99068.81;;;17.63;48.11
22653;BME280;11493;43.344;26.226;2023-02-22T12:17:56;99048.84;;;17.19;47.55
22653;BME280;11493;43.344;26.226;2023-02-22T12:22:22;99062.91;;;17.07;48.07
22653;BME280;11493;43.344;26.226;2023-02-22T12:24:54;99058.56;;;17.09;47.71
22653;BME280;11493;43.344;26.226;2023-02-22T12:32:45;99054.19;;;17.47;47.12
22653;BME280;11493;43.344;26.226;2023-02-22T12:37:58;99046.72;;;17.70;46.81
22653;BME280;11493;43.344;26.226;2023-02-22T12:40:51;99049.56;;;17.97;46.55
22653;BME280;11493;43.344;26.226;2023-02-22T12:43:42;99034.97;;;18.03;46.29
22653;BME280;11493;43.344;26.226;2023-02-22T12:54:59;99047.22;;;17.76;45.09
22653;BME280;11493;43.344;26.226;2023-02-22T12:57:48;99055.50;;;17.72;45.33
22653;BME280;11493;43.344;26.226;2023-02-22T13:00:25;99024.19;;;17.37;44.75
22653;BME280;11493;43.344;26.226;2023-02-22T13:05:46;99045.41;;;17.87;44.71
22653;BME280;11493;43.344;26.226;2023-02-22T13:18:57;99055.19;;;17.58;45.43
22653;BME280;11493;43.344;26.226;2023-02-22T13:27:04;99060.56;;;17.67;45.81
22653;BME280;11493;43.344;26.226;2023-02-22T13:29:38;99057.13;;;17.73;45.57
22653;BME280;11493;43.344;26.226;2023-02-22T13:38:16;99046.84;;;17.78;44.66
22653;BME280;11493;43.344;26.226;2023-02-22T13:44:11;99060.19;;;17.68;45.52
22653;BME280;11493;43.344;26.226;2023-02-22T13:52:20;99063.84;;;17.34;45.35
22653;BME280;11493;43.344;26.226;2023-02-22T13:54:53;99061.00;;;17.30;45.18
22653;BME280;11493;43.344;26.226;2023-02-22T13:57:28;99065.31;;;17.28;45.97
22653;BME280;11493;43.344;26.226;2023-02-22T14:16:30;99044.25;;;17.07;46.08
22653;BME280;11493;43.344;26.226;2023-02-22T14:19:05;99054.56;;;17.07;46.13
22653;BME280;11493;43.344;26.226;2023-02-22T14:21:59;99066.19;;;17.13;46.30
22653;BME280;11493;43.344;26.226;2023-02-22T14:24:44;99059.53;;;17.17;46.41
22653;BME280;11493;43.344;26.226;2023-02-22T14:27:14;99056.38;;;17.19;46.47
22653;BME280;11493;43.344;26.226;2023-02-22T14:29:57;99063.75;;;17.11;46.41
22653;BME280;11493;43.344;26.226;2023-02-22T14:32:33;99050.66;;;17.12;46.21
22653;BME280;11493;43.344;26.226;2023-02-22T14:35:05;99063.56;;;17.00;46.74
22653;BME280;11493;43.344;26.226;2023-02-22T14:37:55;99059.47;;;16.94;47.41
22653;BME280;11493;43.344;26.226;2023-02-22T14:40:33;99010.22;;;16.60;47.26
22653;BME280;11493;43.344;26.226;2023-02-22T14:43:09;99060.09;;;16.88;47.27
22653;BME280;11493;43.344;26.226;2023-02-22T14:45:57;99064.09;;;16.71;47.30
22653;BME280;11493;43.344;26.226;2023-02-22T14:48:34;99059.78;;;16.73;47.33
22653;BME280;11493;43.344;26.226;2023-02-22T14:54:17;99058.09;;;16.69;47.54
22653;BME280;11493;43.344;26.226;2023-02-22T14:57:01;99060.41;;;16.67;47.92
22653;BME280;11493;43.344;26.226;2023-02-22T14:59:51;99058.00;;;16.65;48.04
22653;BME280;11493;43.344;26.226;2023-02-22T15:02:19;99046.09;;;16.49;48.28
22653;BME280;11493;43.344;26.226;2023-02-22T15:04:54;99050.56;;;16.54;48.58
22653;BME280;11493;43.344;26.226;2023-02-22T15:07:29;99056.63;;;16.59;48.74
22653;BME280;11493;43.344;26.226;2023-02-22T15:13:25;99070.28;;;16.49;49.21
22653;BME280;11493;43.344;26.226;2023-02-22T15:15:59;99062.94;;;16.40;49.54
22653;BME280;11493;43.344;26.226;2023-02-22T15:18:38;99065.94;;;16.32;49.64
22653;BME280;11493;43.344;26.226;2023-02-22T15:21:10;99052.69;;;16.09;49.69
22653;BME280;11493;43.344;26.226;2023-02-22T15:23:54;99069.78;;;16.27;49.79
22653;BME280;11493;43.344;26.226;2023-02-22T15:26:28;99071.03;;;16.14;50.37
22653;BME280;11493;43.344;26.226;2023-02-22T15:28:57;99071.22;;;16.05;50.72
22653;BME280;11493;43.344;26.226;2023-02-22T15:31:28;99065.81;;;15.97;51.20
22653;BME280;11493;43.344;26.226;2023-02-22T15:33:56;99072.25;;;15.85;51.59
22653;BME280;11493;43.344;26.226;2023-02-22T15:36:28;99068.59;;;15.81;51.62
22653;BME280;11493;43.344;26.226;2023-02-22T15:38:59;99061.03;;;15.66;51.98
22653;BME280;11493;43.344;26.226;2023-02-22T15:41:32;99072.78;;;15.59;52.17
22653;BME280;11493;43.344;26.226;2023-02-22T15:44:08;99091.94;;;15.52;52.46
22653;BME280;11493;43.344;26.226;2023-02-22T15:46:53;99066.75;;;15.29;52.74
22653;BME280;11493;43.344;26.226;2023-02-22T15:49:23;99084.03;;;15.38;52.86
22653;BME280;11493;43.344;26.226;2023-02-22T15:52:02;99016.00;;;14.85;53.28
22653;BME280;11493;43.344;26.226;2023-02-22T15:54:40;99083.31;;;15.13;53.34